Portada
METAR-TAF:

METAR-TAF

Aeroports :

Medina, Aràbia Saudita

latitud: 24-33N, longitud: 039-42E, altitud: 654 m

Observació

L'informe es va fer fa 22 minuts, a les 07:00 UTC
Vent 3 kt del Sud-Oest
Temperatura 37°C
Humitat 17%
Pressió 1012 hPa
Visibilitat 10 km o més
sense núvols per sota de 1500 mi sense presència de cumulonimbus.

METAR: OEMA 250700Z 23003KT CAVOK 37/08 Q1012 NOSIG

Hora: 10:22 (07:22 UTC)

Pronòstic

L'informe es va fer fa 2 hores i 22 minuts, a les 05:00 UTC
Pronòstic vàlid del 25 a les 06 UTC al 26 a les 12 UTC
Vent 10 kt del Sud
Visibilitat: 7000 m
Núvols disperses a una alçada de 4000 ft
Temporalment
l' 25 a les 10 UTC al 25 a les 18 UTC
Vent 20 kt amb direcció variable
Visibilitat: 4000 m
Escasses núvols a una alçada de 3500 ft, Cumulonimbus.
torb alta de pols

TAF: OEMA 250500Z 2506/2612 18010KT 7000 SCT040 TEMPO 2510/2518 VRB20KT 4000 BLDU FEW035CB

Observacions i pronòstics meteorològics de més de 4000 aeroports (METAR i TAF).

Les estacions disponibles són els punts grocs i vermells al mapa.

Posi el ratolí al punt desitjat per veure el nom de l'estació.

Feu clic per veure les observacions i els pronòstics meteorològics.

Per canviar el mapa: feu clic els botons verds amb una creu de color negre per apropar; al botó verd amb un guió per allunyar la imatge; o en les fletxes verdes per a mapes adjacents.


METAR-TAF: